sensor_id;sensor_type;location;lat;lon;timestamp;P1;durP1;ratioP1;P2;durP2;ratioP2
33690;SDS011;20026;50.058;18.428;2022-09-16T00:01:18;35.83;;;23.13;;
33690;SDS011;20026;50.058;18.428;2022-09-16T00:03:45;35.65;;;23.50;;
33690;SDS011;20026;50.058;18.428;2022-09-16T00:06:15;39.55;;;25.35;;
33690;SDS011;20026;50.058;18.428;2022-09-16T00:08:42;36.58;;;25.67;;
33690;SDS011;20026;50.058;18.428;2022-09-16T00:11:09;39.92;;;29.77;;
33690;SDS011;20026;50.058;18.428;2022-09-16T00:13:35;41.25;;;30.55;;
33690;SDS011;20026;50.058;18.428;2022-09-16T00:16:05;42.50;;;32.00;;
33690;SDS011;20026;50.058;18.428;2022-09-16T00:18:32;45.22;;;32.92;;
33690;SDS011;20026;50.058;18.428;2022-09-16T00:20:57;42.33;;;30.05;;
33690;SDS011;20026;50.058;18.428;2022-09-16T00:23:23;31.05;;;25.10;;
33690;SDS011;20026;50.058;18.428;2022-09-16T00:25:50;25.50;;;19.92;;
33690;SDS011;20026;50.058;18.428;2022-09-16T00:28:16;30.35;;;18.70;;
33690;SDS011;20026;50.058;18.428;2022-09-16T00:30:43;26.05;;;20.48;;
33690;SDS011;20026;50.058;18.428;2022-09-16T00:33:09;41.28;;;30.75;;
33690;SDS011;20026;50.058;18.428;2022-09-16T00:35:35;42.17;;;33.17;;
33690;SDS011;20026;50.058;18.428;2022-09-16T00:38:00;46.33;;;35.72;;
33690;SDS011;20026;50.058;18.428;2022-09-16T00:40:26;47.55;;;34.38;;
33690;SDS011;20026;50.058;18.428;2022-09-16T00:42:52;52.80;;;37.97;;
33690;SDS011;20026;50.058;18.428;2022-09-16T00:45:19;65.30;;;43.25;;
33690;SDS011;20026;50.058;18.428;2022-09-16T00:47:53;60.22;;;42.80;;
33690;SDS011;20026;50.058;18.428;2022-09-16T00:52:46;47.70;;;35.72;;
33690;SDS011;20026;50.058;18.428;2022-09-16T00:55:14;43.40;;;31.95;;
33690;SDS011;20026;50.058;18.428;2022-09-16T00:57:41;39.80;;;28.80;;
33690;SDS011;20026;50.058;18.428;2022-09-16T01:00:08;37.38;;;25.60;;
33690;SDS011;20026;50.058;18.428;2022-09-16T01:02:36;33.92;;;24.27;;
33690;SDS011;20026;50.058;18.428;2022-09-16T01:05:04;33.85;;;24.65;;
33690;SDS011;20026;50.058;18.428;2022-09-16T01:07:38;34.80;;;23.70;;
33690;SDS011;20026;50.058;18.428;2022-09-16T01:10:06;32.80;;;24.05;;
33690;SDS011;20026;50.058;18.428;2022-09-16T01:12:33;44.03;;;31.40;;
33690;SDS011;20026;50.058;18.428;2022-09-16T01:14:59;42.70;;;31.75;;
33690;SDS011;20026;50.058;18.428;2022-09-16T01:20:07;45.10;;;27.80;;
33690;SDS011;20026;50.058;18.428;2022-09-16T01:22:40;34.22;;;25.90;;
33690;SDS011;20026;50.058;18.428;2022-09-16T01:25:17;41.83;;;31.20;;
33690;SDS011;20026;50.058;18.428;2022-09-16T01:27:50;46.80;;;33.17;;
33690;SDS011;20026;50.058;18.428;2022-09-16T01:30:33;41.72;;;31.27;;
33690;SDS011;20026;50.058;18.428;2022-09-16T01:35:38;28.40;;;23.23;;
33690;SDS011;20026;50.058;18.428;2022-09-16T01:38:16;27.67;;;20.25;;
33690;SDS011;20026;50.058;18.428;2022-09-16T01:45:55;24.35;;;18.83;;
33690;SDS011;20026;50.058;18.428;2022-09-16T01:48:36;25.20;;;18.73;;
33690;SDS011;20026;50.058;18.428;2022-09-16T01:53:38;27.15;;;18.88;;
33690;SDS011;20026;50.058;18.428;2022-09-16T01:58:50;28.00;;;22.63;;
33690;SDS011;20026;50.058;18.428;2022-09-16T02:01:21;40.75;;;32.88;;
33690;SDS011;20026;50.058;18.428;2022-09-16T02:03:51;38.97;;;32.70;;
33690;SDS011;20026;50.058;18.428;2022-09-16T02:08:51;33.00;;;24.85;;
33690;SDS011;20026;50.058;18.428;2022-09-16T02:11:18;26.50;;;21.65;;
33690;SDS011;20026;50.058;18.428;2022-09-16T02:16:19;23.48;;;17.45;;
33690;SDS011;20026;50.058;18.428;2022-09-16T02:18:49;21.50;;;16.55;;
33690;SDS011;20026;50.058;18.428;2022-09-16T02:21:16;24.10;;;17.42;;
33690;SDS011;20026;50.058;18.428;2022-09-16T02:23:44;21.15;;;17.67;;
33690;SDS011;20026;50.058;18.428;2022-09-16T02:26:12;26.17;;;18.98;;
33690;SDS011;20026;50.058;18.428;2022-09-16T02:28:41;27.73;;;20.27;;
33690;SDS011;20026;50.058;18.428;2022-09-16T02:31:08;24.60;;;20.23;;
33690;SDS011;20026;50.058;18.428;2022-09-16T02:33:35;28.65;;;21.65;;
33690;SDS011;20026;50.058;18.428;2022-09-16T02:36:02;24.73;;;20.55;;
33690;SDS011;20026;50.058;18.428;2022-09-16T02:38:30;28.17;;;20.02;;
33690;SDS011;20026;50.058;18.428;2022-09-16T02:40:59;21.73;;;17.85;;
33690;SDS011;20026;50.058;18.428;2022-09-16T02:43:26;19.38;;;15.48;;
33690;SDS011;20026;50.058;18.428;2022-09-16T02:48:42;14.10;;;12.07;;
33690;SDS011;20026;50.058;18.428;2022-09-16T02:56:44;15.73;;;10.38;;
33690;SDS011;20026;50.058;18.428;2022-09-16T02:59:10;17.98;;;10.85;;
33690;SDS011;20026;50.058;18.428;2022-09-16T03:01:39;16.63;;;10.32;;
33690;SDS011;20026;50.058;18.428;2022-09-16T03:04:05;16.40;;;10.98;;
33690;SDS011;20026;50.058;18.428;2022-09-16T03:06:31;19.15;;;10.98;;
33690;SDS011;20026;50.058;18.428;2022-09-16T03:09:00;20.50;;;11.10;;
33690;SDS011;20026;50.058;18.428;2022-09-16T03:11:38;22.30;;;11.35;;
33690;SDS011;20026;50.058;18.428;2022-09-16T03:22:01;14.13;;;10.30;;
33690;SDS011;20026;50.058;18.428;2022-09-16T03:24:39;20.00;;;11.63;;
33690;SDS011;20026;50.058;18.428;2022-09-16T03:27:09;15.98;;;11.57;;
33690;SDS011;20026;50.058;18.428;2022-09-16T03:29:37;16.17;;;11.45;;
33690;SDS011;20026;50.058;18.428;2022-09-16T03:34:53;13.85;;;12.07;;
33690;SDS011;20026;50.058;18.428;2022-09-16T03:37:20;20.92;;;12.10;;
33690;SDS011;20026;50.058;18.428;2022-09-16T03:39:51;15.63;;;12.15;;
33690;SDS011;20026;50.058;18.428;2022-09-16T03:42:17;19.25;;;12.90;;
33690;SDS011;20026;50.058;18.428;2022-09-16T03:44:43;20.75;;;12.80;;
33690;SDS011;20026;50.058;18.428;2022-09-16T03:47:10;21.95;;;13.85;;
33690;SDS011;20026;50.058;18.428;2022-09-16T03:49:36;22.73;;;18.40;;
33690;SDS011;20026;50.058;18.428;2022-09-16T03:52:02;23.88;;;19.42;;
33690;SDS011;20026;50.058;18.428;2022-09-16T03:54:29;24.05;;;17.52;;
33690;SDS011;20026;50.058;18.428;2022-09-16T03:56:55;20.60;;;17.00;;
33690;SDS011;20026;50.058;18.428;2022-09-16T03:59:21;22.90;;;17.48;;
33690;SDS011;20026;50.058;18.428;2022-09-16T04:01:47;19.10;;;15.95;;
33690;SDS011;20026;50.058;18.428;2022-09-16T04:04:13;18.23;;;16.02;;
33690;SDS011;20026;50.058;18.428;2022-09-16T04:06:39;19.88;;;14.90;;
33690;SDS011;20026;50.058;18.428;2022-09-16T04:09:05;19.75;;;15.68;;
33690;SDS011;20026;50.058;18.428;2022-09-16T04:11:32;21.52;;;16.38;;
33690;SDS011;20026;50.058;18.428;2022-09-16T04:13:59;24.85;;;15.95;;
33690;SDS011;20026;50.058;18.428;2022-09-16T04:16:25;21.02;;;16.25;;
33690;SDS011;20026;50.058;18.428;2022-09-16T04:18:51;21.13;;;15.00;;
33690;SDS011;20026;50.058;18.428;2022-09-16T04:21:17;17.92;;;14.18;;
33690;SDS011;20026;50.058;18.428;2022-09-16T04:23:43;18.45;;;13.85;;
33690;SDS011;20026;50.058;18.428;2022-09-16T04:26:09;19.83;;;13.45;;
33690;SDS011;20026;50.058;18.428;2022-09-16T04:28:36;17.70;;;13.23;;
33690;SDS011;20026;50.058;18.428;2022-09-16T04:31:03;19.40;;;12.63;;
33690;SDS011;20026;50.058;18.428;2022-09-16T04:33:30;16.70;;;13.32;;
33690;SDS011;20026;50.058;18.428;2022-09-16T04:36:07;19.08;;;13.45;;
33690;SDS011;20026;50.058;18.428;2022-09-16T04:38:34;18.20;;;12.80;;
33690;SDS011;20026;50.058;18.428;2022-09-16T04:41:04;21.05;;;13.48;;
33690;SDS011;20026;50.058;18.428;2022-09-16T04:43:30;18.00;;;13.13;;
33690;SDS011;20026;50.058;18.428;2022-09-16T04:45:56;17.08;;;13.88;;
33690;SDS011;20026;50.058;18.428;2022-09-16T04:48:22;18.85;;;13.15;;
33690;SDS011;20026;50.058;18.428;2022-09-16T04:50:49;17.63;;;13.02;;
33690;SDS011;20026;50.058;18.428;2022-09-16T04:53:15;18.02;;;13.38;;
33690;SDS011;20026;50.058;18.428;2022-09-16T04:55:41;16.10;;;13.05;;
33690;SDS011;20026;50.058;18.428;2022-09-16T04:58:08;15.23;;;12.93;;
33690;SDS011;20026;50.058;18.428;2022-09-16T05:00:34;15.27;;;13.00;;
33690;SDS011;20026;50.058;18.428;2022-09-16T05:03:00;18.02;;;12.80;;
33690;SDS011;20026;50.058;18.428;2022-09-16T05:05:25;16.02;;;12.70;;
33690;SDS011;20026;50.058;18.428;2022-09-16T05:07:51;15.65;;;12.27;;
33690;SDS011;20026;50.058;18.428;2022-09-16T05:10:17;18.52;;;13.73;;
33690;SDS011;20026;50.058;18.428;2022-09-16T05:12:43;15.65;;;12.60;;
33690;SDS011;20026;50.058;18.428;2022-09-16T05:15:09;19.50;;;12.55;;
33690;SDS011;20026;50.058;18.428;2022-09-16T05:17:35;12.13;;;10.90;;
33690;SDS011;20026;50.058;18.428;2022-09-16T05:20:01;13.48;;;11.05;;
33690;SDS011;20026;50.058;18.428;2022-09-16T05:22:27;14.65;;;11.02;;
33690;SDS011;20026;50.058;18.428;2022-09-16T05:24:53;23.90;;;11.70;;
33690;SDS011;20026;50.058;18.428;2022-09-16T05:27:19;13.52;;;11.43;;
33690;SDS011;20026;50.058;18.428;2022-09-16T05:29:46;13.10;;;11.07;;
33690;SDS011;20026;50.058;18.428;2022-09-16T05:32:12;12.85;;;10.52;;
33690;SDS011;20026;50.058;18.428;2022-09-16T05:34:38;14.07;;;10.80;;
33690;SDS011;20026;50.058;18.428;2022-09-16T05:37:04;13.10;;;10.35;;
33690;SDS011;20026;50.058;18.428;2022-09-16T05:39:29;11.73;;;9.23;;
33690;SDS011;20026;50.058;18.428;2022-09-16T05:41:57;9.68;;;8.57;;
33690;SDS011;20026;50.058;18.428;2022-09-16T05:44:23;11.80;;;9.10;;
33690;SDS011;20026;50.058;18.428;2022-09-16T05:46:50;12.90;;;9.10;;
33690;SDS011;20026;50.058;18.428;2022-09-16T05:49:16;16.20;;;10.10;;
33690;SDS011;20026;50.058;18.428;2022-09-16T05:51:44;14.05;;;11.15;;
33690;SDS011;20026;50.058;18.428;2022-09-16T05:54:11;17.50;;;10.27;;
33690;SDS011;20026;50.058;18.428;2022-09-16T05:56:37;17.48;;;10.38;;
33690;SDS011;20026;50.058;18.428;2022-09-16T05:59:03;16.05;;;10.55;;
33690;SDS011;20026;50.058;18.428;2022-09-16T06:01:30;12.27;;;9.52;;
33690;SDS011;20026;50.058;18.428;2022-09-16T06:03:56;12.40;;;9.48;;
33690;SDS011;20026;50.058;18.428;2022-09-16T06:08:52;17.17;;;9.77;;
33690;SDS011;20026;50.058;18.428;2022-09-16T06:11:18;12.70;;;9.73;;
33690;SDS011;20026;50.058;18.428;2022-09-16T06:13:44;10.90;;;9.07;;
33690;SDS011;20026;50.058;18.428;2022-09-16T06:16:10;13.23;;;9.68;;
33690;SDS011;20026;50.058;18.428;2022-09-16T06:18:38;13.30;;;9.15;;
33690;SDS011;20026;50.058;18.428;2022-09-16T06:21:05;10.85;;;8.73;;
33690;SDS011;20026;50.058;18.428;2022-09-16T06:23:31;11.98;;;8.27;;
33690;SDS011;20026;50.058;18.428;2022-09-16T06:25:58;10.85;;;8.30;;
33690;SDS011;20026;50.058;18.428;2022-09-16T06:28:25;12.32;;;8.10;;
33690;SDS011;20026;50.058;18.428;2022-09-16T06:30:59;8.88;;;7.53;;
33690;SDS011;20026;50.058;18.428;2022-09-16T06:33:26;9.90;;;8.18;;
33690;SDS011;20026;50.058;18.428;2022-09-16T06:35:52;10.07;;;7.10;;
33690;SDS011;20026;50.058;18.428;2022-09-16T06:38:18;9.70;;;6.68;;
33690;SDS011;20026;50.058;18.428;2022-09-16T06:40:44;11.50;;;7.13;;
33690;SDS011;20026;50.058;18.428;2022-09-16T06:43:10;9.60;;;7.15;;
33690;SDS011;20026;50.058;18.428;2022-09-16T06:45:36;8.32;;;6.93;;
33690;SDS011;20026;50.058;18.428;2022-09-16T06:48:02;8.70;;;6.85;;
33690;SDS011;20026;50.058;18.428;2022-09-16T06:50:28;10.70;;;7.43;;
33690;SDS011;20026;50.058;18.428;2022-09-16T06:52:54;7.45;;;6.68;;
33690;SDS011;20026;50.058;18.428;2022-09-16T06:55:20;11.60;;;7.38;;
33690;SDS011;20026;50.058;18.428;2022-09-16T06:57:46;12.65;;;7.80;;
33690;SDS011;20026;50.058;18.428;2022-09-16T07:00:12;10.38;;;7.03;;
33690;SDS011;20026;50.058;18.428;2022-09-16T07:02:38;11.45;;;7.18;;
33690;SDS011;20026;50.058;18.428;2022-09-16T07:05:04;11.68;;;7.45;;
33690;SDS011;20026;50.058;18.428;2022-09-16T07:07:30;11.73;;;7.72;;
33690;SDS011;20026;50.058;18.428;2022-09-16T07:09:57;10.93;;;7.20;;
33690;SDS011;20026;50.058;18.428;2022-09-16T07:12:23;9.02;;;6.57;;
33690;SDS011;20026;50.058;18.428;2022-09-16T07:14:49;10.50;;;7.22;;
33690;SDS011;20026;50.058;18.428;2022-09-16T07:17:15;9.30;;;6.05;;
33690;SDS011;20026;50.058;18.428;2022-09-16T07:19:41;9.65;;;5.72;;
33690;SDS011;20026;50.058;18.428;2022-09-16T07:22:08;10.50;;;6.25;;
33690;SDS011;20026;50.058;18.428;2022-09-16T07:24:35;8.68;;;5.95;;
33690;SDS011;20026;50.058;18.428;2022-09-16T07:27:01;8.60;;;5.78;;
33690;SDS011;20026;50.058;18.428;2022-09-16T07:29:27;7.55;;;5.88;;
33690;SDS011;20026;50.058;18.428;2022-09-16T07:31:53;11.20;;;6.13;;
33690;SDS011;20026;50.058;18.428;2022-09-16T07:34:19;8.55;;;5.68;;
33690;SDS011;20026;50.058;18.428;2022-09-16T07:36:46;12.13;;;6.03;;
33690;SDS011;20026;50.058;18.428;2022-09-16T07:39:13;9.75;;;5.97;;
33690;SDS011;20026;50.058;18.428;2022-09-16T07:41:41;7.65;;;5.25;;
33690;SDS011;20026;50.058;18.428;2022-09-16T07:44:08;7.03;;;5.25;;
33690;SDS011;20026;50.058;18.428;2022-09-16T07:46:35;6.95;;;5.50;;
33690;SDS011;20026;50.058;18.428;2022-09-16T07:49:02;10.52;;;6.13;;
33690;SDS011;20026;50.058;18.428;2022-09-16T07:51:28;7.43;;;5.00;;
33690;SDS011;20026;50.058;18.428;2022-09-16T07:53:55;11.45;;;4.75;;
33690;SDS011;20026;50.058;18.428;2022-09-16T07:56:23;8.10;;;5.07;;
33690;SDS011;20026;50.058;18.428;2022-09-16T07:58:49;11.70;;;6.70;;
33690;SDS011;20026;50.058;18.428;2022-09-16T08:01:16;13.35;;;6.55;;
33690;SDS011;20026;50.058;18.428;2022-09-16T08:03:43;16.08;;;6.05;;
33690;SDS011;20026;50.058;18.428;2022-09-16T08:06:10;9.15;;;4.90;;
33690;SDS011;20026;50.058;18.428;2022-09-16T08:08:37;10.52;;;5.68;;
33690;SDS011;20026;50.058;18.428;2022-09-16T08:11:03;8.02;;;4.50;;
33690;SDS011;20026;50.058;18.428;2022-09-16T08:13:30;8.85;;;4.63;;
33690;SDS011;20026;50.058;18.428;2022-09-16T08:18:46;8.30;;;4.10;;
33690;SDS011;20026;50.058;18.428;2022-09-16T08:21:19;7.50;;;3.30;;
33690;SDS011;20026;50.058;18.428;2022-09-16T08:23:45;10.63;;;4.70;;
33690;SDS011;20026;50.058;18.428;2022-09-16T08:26:12;26.63;;;21.05;;
33690;SDS011;20026;50.058;18.428;2022-09-16T08:28:39;56.58;;;46.83;;
33690;SDS011;20026;50.058;18.428;2022-09-16T08:31:05;5.22;;;4.35;;
33690;SDS011;20026;50.058;18.428;2022-09-16T08:33:31;10.98;;;4.95;;
33690;SDS011;20026;50.058;18.428;2022-09-16T08:36:01;8.23;;;3.20;;
33690;SDS011;20026;50.058;18.428;2022-09-16T08:38:28;8.20;;;3.55;;
33690;SDS011;20026;50.058;18.428;2022-09-16T08:41:00;4.68;;;2.80;;
33690;SDS011;20026;50.058;18.428;2022-09-16T08:43:34;6.35;;;2.53;;
33690;SDS011;20026;50.058;18.428;2022-09-16T08:48:58;3.05;;;2.20;;
33690;SDS011;20026;50.058;18.428;2022-09-16T08:51:26;3.95;;;2.63;;
33690;SDS011;20026;50.058;18.428;2022-09-16T08:56:45;4.10;;;2.28;;
33690;SDS011;20026;50.058;18.428;2022-09-16T08:59:14;4.80;;;2.75;;
33690;SDS011;20026;50.058;18.428;2022-09-16T09:01:44;7.22;;;2.65;;
33690;SDS011;20026;50.058;18.428;2022-09-16T09:04:12;4.68;;;2.60;;
33690;SDS011;20026;50.058;18.428;2022-09-16T09:11:57;6.88;;;2.88;;
33690;SDS011;20026;50.058;18.428;2022-09-16T09:14:46;5.32;;;2.95;;
33690;SDS011;20026;50.058;18.428;2022-09-16T09:17:23;6.40;;;2.60;;
33690;SDS011;20026;50.058;18.428;2022-09-16T09:20:02;19.17;;;11.73;;
33690;SDS011;20026;50.058;18.428;2022-09-16T09:22:39;3.65;;;2.35;;
33690;SDS011;20026;50.058;18.428;2022-09-16T09:30:25;4.82;;;2.10;;
33690;SDS011;20026;50.058;18.428;2022-09-16T09:38:18;3.42;;;2.53;;
33690;SDS011;20026;50.058;18.428;2022-09-16T09:40:56;4.70;;;1.70;;
33690;SDS011;20026;50.058;18.428;2022-09-16T09:43:28;6.43;;;2.00;;
33690;SDS011;20026;50.058;18.428;2022-09-16T09:45:59;4.82;;;2.30;;
33690;SDS011;20026;50.058;18.428;2022-09-16T09:50:58;6.53;;;2.00;;
33690;SDS011;20026;50.058;18.428;2022-09-16T09:53:34;4.25;;;2.35;;
33690;SDS011;20026;50.058;18.428;2022-09-16T09:56:07;5.43;;;2.15;;
33690;SDS011;20026;50.058;18.428;2022-09-16T09:58:38;3.80;;;2.00;;
33690;SDS011;20026;50.058;18.428;2022-09-16T10:01:05;4.40;;;2.40;;
33690;SDS011;20026;50.058;18.428;2022-09-16T10:03:31;3.55;;;2.83;;
33690;SDS011;20026;50.058;18.428;2022-09-16T10:05:57;3.95;;;1.67;;
33690;SDS011;20026;50.058;18.428;2022-09-16T10:11:20;6.13;;;2.20;;
33690;SDS011;20026;50.058;18.428;2022-09-16T10:13:50;3.25;;;2.08;;
33690;SDS011;20026;50.058;18.428;2022-09-16T10:16:17;6.88;;;3.00;;
33690;SDS011;20026;50.058;18.428;2022-09-16T10:18:44;3.40;;;2.10;;
33690;SDS011;20026;50.058;18.428;2022-09-16T10:21:17;6.50;;;3.70;;
33690;SDS011;20026;50.058;18.428;2022-09-16T10:23:54;3.65;;;2.00;;
33690;SDS011;20026;50.058;18.428;2022-09-16T10:26:27;4.90;;;2.92;;
33690;SDS011;20026;50.058;18.428;2022-09-16T10:28:54;7.90;;;4.90;;
33690;SDS011;20026;50.058;18.428;2022-09-16T10:31:21;2.95;;;2.17;;
33690;SDS011;20026;50.058;18.428;2022-09-16T10:33:47;3.10;;;2.08;;
33690;SDS011;20026;50.058;18.428;2022-09-16T10:36:18;8.50;;;2.13;;
33690;SDS011;20026;50.058;18.428;2022-09-16T10:38:49;5.80;;;2.40;;
33690;SDS011;20026;50.058;18.428;2022-09-16T10:41:19;3.47;;;2.05;;
33690;SDS011;20026;50.058;18.428;2022-09-16T10:43:47;2.92;;;2.13;;
33690;SDS011;20026;50.058;18.428;2022-09-16T10:46:14;3.60;;;2.40;;
33690;SDS011;20026;50.058;18.428;2022-09-16T10:48:41;5.97;;;3.30;;
33690;SDS011;20026;50.058;18.428;2022-09-16T10:51:18;19.00;;;8.32;;
33690;SDS011;20026;50.058;18.428;2022-09-16T10:53:49;6.38;;;4.10;;
33690;SDS011;20026;50.058;18.428;2022-09-16T10:56:18;6.63;;;3.38;;
33690;SDS011;20026;50.058;18.428;2022-09-16T10:58:44;5.35;;;2.55;;
33690;SDS011;20026;50.058;18.428;2022-09-16T11:04:04;3.70;;;2.78;;
33690;SDS011;20026;50.058;18.428;2022-09-16T11:09:08;3.13;;;1.95;;
33690;SDS011;20026;50.058;18.428;2022-09-16T11:14:27;4.30;;;2.23;;
33690;SDS011;20026;50.058;18.428;2022-09-16T11:30:03;4.03;;;2.80;;
33690;SDS011;20026;50.058;18.428;2022-09-16T11:35:26;5.57;;;2.20;;
33690;SDS011;20026;50.058;18.428;2022-09-16T11:40:32;3.38;;;2.53;;
33690;SDS011;20026;50.058;18.428;2022-09-16T11:48:01;5.00;;;3.58;;
33690;SDS011;20026;50.058;18.428;2022-09-16T11:50:37;3.80;;;1.73;;
33690;SDS011;20026;50.058;18.428;2022-09-16T11:55:42;2.20;;;1.17;;
33690;SDS011;20026;50.058;18.428;2022-09-16T12:00:56;6.03;;;1.48;;
33690;SDS011;20026;50.058;18.428;2022-09-16T12:06:17;4.05;;;1.67;;
33690;SDS011;20026;50.058;18.428;2022-09-16T12:09:05;5.25;;;2.13;;
33690;SDS011;20026;50.058;18.428;2022-09-16T12:11:41;3.58;;;1.02;;
33690;SDS011;20026;50.058;18.428;2022-09-16T12:16:44;4.22;;;1.27;;
33690;SDS011;20026;50.058;18.428;2022-09-16T12:19:14;3.00;;;0.95;;
33690;SDS011;20026;50.058;18.428;2022-09-16T12:24:14;5.15;;;1.60;;
33690;SDS011;20026;50.058;18.428;2022-09-16T12:26:44;11.05;;;5.35;;
33690;SDS011;20026;50.058;18.428;2022-09-16T12:31:39;28.20;;;15.45;;
33690;SDS011;20026;50.058;18.428;2022-09-16T12:36:44;9.05;;;3.58;;
33690;SDS011;20026;50.058;18.428;2022-09-16T12:39:11;16.58;;;8.85;;
33690;SDS011;20026;50.058;18.428;2022-09-16T12:49:40;14.75;;;6.32;;
33690;SDS011;20026;50.058;18.428;2022-09-16T13:02:15;8.15;;;4.30;;
33690;SDS011;20026;50.058;18.428;2022-09-16T13:04:44;10.55;;;4.72;;
33690;SDS011;20026;50.058;18.428;2022-09-16T13:07:25;8.30;;;3.90;;
33690;SDS011;20026;50.058;18.428;2022-09-16T13:10:06;10.27;;;4.30;;
33690;SDS011;20026;50.058;18.428;2022-09-16T13:12:33;5.70;;;2.55;;
33690;SDS011;20026;50.058;18.428;2022-09-16T13:15:00;9.35;;;3.60;;
33690;SDS011;20026;50.058;18.428;2022-09-16T13:17:30;6.15;;;2.35;;
33690;SDS011;20026;50.058;18.428;2022-09-16T13:20:04;8.77;;;3.00;;
33690;SDS011;20026;50.058;18.428;2022-09-16T13:22:41;5.05;;;2.10;;
33690;SDS011;20026;50.058;18.428;2022-09-16T13:28:19;6.82;;;2.50;;
33690;SDS011;20026;50.058;18.428;2022-09-16T13:30:46;3.55;;;1.38;;
33690;SDS011;20026;50.058;18.428;2022-09-16T13:33:23;5.47;;;1.80;;
33690;SDS011;20026;50.058;18.428;2022-09-16T13:36:00;5.88;;;2.05;;
33690;SDS011;20026;50.058;18.428;2022-09-16T13:38:39;3.35;;;1.50;;
33690;SDS011;20026;50.058;18.428;2022-09-16T13:41:05;7.38;;;2.03;;
33690;SDS011;20026;50.058;18.428;2022-09-16T13:46:11;4.30;;;1.98;;
33690;SDS011;20026;50.058;18.428;2022-09-16T13:48:43;8.40;;;2.33;;
33690;SDS011;20026;50.058;18.428;2022-09-16T13:51:15;7.90;;;2.03;;
33690;SDS011;20026;50.058;18.428;2022-09-16T13:53:43;10.32;;;1.98;;
33690;SDS011;20026;50.058;18.428;2022-09-16T14:01:22;6.10;;;2.20;;
33690;SDS011;20026;50.058;18.428;2022-09-16T14:03:55;6.53;;;2.58;;
33690;SDS011;20026;50.058;18.428;2022-09-16T14:06:37;4.63;;;1.65;;
33690;SDS011;20026;50.058;18.428;2022-09-16T14:11:51;8.43;;;2.45;;
33690;SDS011;20026;50.058;18.428;2022-09-16T14:14:18;6.30;;;2.50;;
33690;SDS011;20026;50.058;18.428;2022-09-16T14:16:45;25.55;;;12.73;;
33690;SDS011;20026;50.058;18.428;2022-09-16T14:21:43;22.48;;;10.98;;
33690;SDS011;20026;50.058;18.428;2022-09-16T14:24:16;15.35;;;7.32;;
33690;SDS011;20026;50.058;18.428;2022-09-16T14:26:55;9.48;;;4.47;;
33690;SDS011;20026;50.058;18.428;2022-09-16T14:29:22;10.85;;;5.15;;
33690;SDS011;20026;50.058;18.428;2022-09-16T14:31:50;10.20;;;4.18;;
33690;SDS011;20026;50.058;18.428;2022-09-16T14:34:22;8.73;;;3.88;;
33690;SDS011;20026;50.058;18.428;2022-09-16T14:36:50;9.68;;;3.63;;
33690;SDS011;20026;50.058;18.428;2022-09-16T14:39:16;3.63;;;2.20;;
33690;SDS011;20026;50.058;18.428;2022-09-16T14:41:53;8.05;;;3.80;;
33690;SDS011;20026;50.058;18.428;2022-09-16T14:44:28;13.27;;;7.30;;
33690;SDS011;20026;50.058;18.428;2022-09-16T14:46:57;34.88;;;22.40;;
33690;SDS011;20026;50.058;18.428;2022-09-16T14:49:24;13.65;;;8.85;;
33690;SDS011;20026;50.058;18.428;2022-09-16T14:51:53;7.13;;;5.05;;
33690;SDS011;20026;50.058;18.428;2022-09-16T14:54:20;8.73;;;5.05;;
33690;SDS011;20026;50.058;18.428;2022-09-16T14:57:06;9.32;;;3.85;;
33690;SDS011;20026;50.058;18.428;2022-09-16T14:59:33;14.38;;;12.90;;
33690;SDS011;20026;50.058;18.428;2022-09-16T15:04:46;8.60;;;7.45;;
33690;SDS011;20026;50.058;18.428;2022-09-16T15:07:14;8.38;;;4.47;;
33690;SDS011;20026;50.058;18.428;2022-09-16T15:09:46;4.57;;;3.13;;
33690;SDS011;20026;50.058;18.428;2022-09-16T15:12:16;4.82;;;3.80;;
33690;SDS011;20026;50.058;18.428;2022-09-16T15:14:42;8.75;;;6.07;;
33690;SDS011;20026;50.058;18.428;2022-09-16T15:17:08;54.67;;;33.15;;
33690;SDS011;20026;50.058;18.428;2022-09-16T15:19:35;38.17;;;22.45;;
33690;SDS011;20026;50.058;18.428;2022-09-16T15:22:02;62.20;;;38.80;;
33690;SDS011;20026;50.058;18.428;2022-09-16T15:24:29;8.73;;;6.40;;
33690;SDS011;20026;50.058;18.428;2022-09-16T15:26:56;39.63;;;31.50;;
33690;SDS011;20026;50.058;18.428;2022-09-16T15:31:49;13.13;;;8.80;;
33690;SDS011;20026;50.058;18.428;2022-09-16T15:34:19;75.85;;;68.05;;
33690;SDS011;20026;50.058;18.428;2022-09-16T15:36:52;10.55;;;7.20;;
33690;SDS011;20026;50.058;18.428;2022-09-16T15:39:39;7.78;;;3.58;;
33690;SDS011;20026;50.058;18.428;2022-09-16T15:44:46;25.05;;;18.95;;
33690;SDS011;20026;50.058;18.428;2022-09-16T15:47:15;10.63;;;7.03;;
33690;SDS011;20026;50.058;18.428;2022-09-16T15:49:42;36.88;;;27.15;;
33690;SDS011;20026;50.058;18.428;2022-09-16T15:52:09;17.38;;;9.65;;
33690;SDS011;20026;50.058;18.428;2022-09-16T15:54:37;13.43;;;8.07;;
33690;SDS011;20026;50.058;18.428;2022-09-16T15:59:39;57.08;;;43.20;;
33690;SDS011;20026;50.058;18.428;2022-09-16T16:02:21;21.13;;;14.82;;
33690;SDS011;20026;50.058;18.428;2022-09-16T16:04:50;22.90;;;18.80;;
33690;SDS011;20026;50.058;18.428;2022-09-16T16:10:11;11.63;;;6.53;;
33690;SDS011;20026;50.058;18.428;2022-09-16T16:12:38;12.68;;;8.90;;
33690;SDS011;20026;50.058;18.428;2022-09-16T16:15:05;10.52;;;5.53;;
33690;SDS011;20026;50.058;18.428;2022-09-16T16:17:32;20.42;;;10.85;;
33690;SDS011;20026;50.058;18.428;2022-09-16T16:19:59;10.95;;;6.28;;
33690;SDS011;20026;50.058;18.428;2022-09-16T16:22:25;10.27;;;7.00;;
33690;SDS011;20026;50.058;18.428;2022-09-16T16:24:52;18.10;;;13.88;;
33690;SDS011;20026;50.058;18.428;2022-09-16T16:27:18;32.67;;;17.58;;
33690;SDS011;20026;50.058;18.428;2022-09-16T16:29:44;51.50;;;36.00;;
33690;SDS011;20026;50.058;18.428;2022-09-16T16:32:11;12.90;;;8.57;;
33690;SDS011;20026;50.058;18.428;2022-09-16T16:34:38;15.18;;;9.40;;
33690;SDS011;20026;50.058;18.428;2022-09-16T16:37:05;23.52;;;13.45;;
33690;SDS011;20026;50.058;18.428;2022-09-16T16:39:31;18.17;;;11.45;;
33690;SDS011;20026;50.058;18.428;2022-09-16T16:41:57;18.30;;;9.50;;
33690;SDS011;20026;50.058;18.428;2022-09-16T16:44:23;22.10;;;12.57;;
33690;SDS011;20026;50.058;18.428;2022-09-16T16:46:50;23.33;;;15.38;;
33690;SDS011;20026;50.058;18.428;2022-09-16T16:49:16;16.77;;;9.85;;
33690;SDS011;20026;50.058;18.428;2022-09-16T16:51:42;21.58;;;9.50;;
33690;SDS011;20026;50.058;18.428;2022-09-16T16:54:09;20.83;;;11.13;;
33690;SDS011;20026;50.058;18.428;2022-09-16T16:56:36;23.65;;;12.90;;
33690;SDS011;20026;50.058;18.428;2022-09-16T16:59:04;22.30;;;12.07;;
33690;SDS011;20026;50.058;18.428;2022-09-16T17:01:30;23.33;;;12.07;;
33690;SDS011;20026;50.058;18.428;2022-09-16T17:03:57;32.25;;;18.15;;
33690;SDS011;20026;50.058;18.428;2022-09-16T17:06:24;39.30;;;19.27;;
33690;SDS011;20026;50.058;18.428;2022-09-16T17:08:50;26.20;;;14.35;;
33690;SDS011;20026;50.058;18.428;2022-09-16T17:11:18;24.80;;;13.68;;
33690;SDS011;20026;50.058;18.428;2022-09-16T17:13:45;24.35;;;11.73;;
33690;SDS011;20026;50.058;18.428;2022-09-16T17:16:12;41.95;;;17.63;;
33690;SDS011;20026;50.058;18.428;2022-09-16T17:18:39;37.40;;;14.65;;
33690;SDS011;20026;50.058;18.428;2022-09-16T17:21:06;25.23;;;11.25;;